Time;durP1;ratioP1;P1;durP2;ratioP2;P2;SDS_P1;SDS_P2;PMS_P1;PMS_P2;Temp;Humidity;BMP_temperature;BMP_pressure;BME280_temperature;BME280_humidity;BME280_pressure;Samples;Min_cycle;Max_cycle;Signal;HPM_P1;HPM_P2
2024/02/08 00:01:47;;;;;;;0.30;0.20;;;11.30;99.90;;;;;;5105346;28;20172;-77
2024/02/08 00:04:12;;;;;;;0.30;0.20;;;11.30;99.90;;;;;;5105205;28;20196;-77
2024/02/08 00:06:38;;;;;;;0.30;0.20;;;11.30;99.90;;;;;;5105572;28;20438;-78
2024/02/08 00:09:03;;;;;;;0.30;0.20;;;11.20;99.90;;;;;;5104968;28;20196;-76
2024/02/08 00:11:31;;;;;;;0.30;0.20;;;11.20;99.90;;;;;;5105322;28;20701;-77
2024/02/08 00:13:57;;;;;;;0.30;0.20;;;11.20;99.90;;;;;;5103854;28;20445;-78
2024/02/08 00:16:23;;;;;;;0.30;0.20;;;11.20;99.90;;;;;;5105127;28;20191;-77
2024/02/08 00:18:49;;;;;;;0.30;0.20;;;11.30;99.90;;;;;;5107671;28;20206;-77
2024/02/08 00:21:14;;;;;;;0.30;0.20;;;11.30;99.90;;;;;;5108538;28;20168;-77
2024/02/08 00:23:40;;;;;;;0.30;0.20;;;11.20;99.90;;;;;;5107365;28;20322;-78
2024/02/08 00:26:06;;;;;;;0.30;0.20;;;11.20;99.90;;;;;;5108438;28;20179;-77
2024/02/08 00:28:33;;;;;;;0.30;0.20;;;11.30;99.90;;;;;;5107706;28;20617;-77
2024/02/08 00:30:58;;;;;;;0.30;0.20;;;11.20;99.90;;;;;;5108188;28;20392;-77
2024/02/08 00:33:25;;;;;;;0.30;0.20;;;11.10;99.90;;;;;;5107365;28;20229;-77
2024/02/08 00:35:55;;;;;;;0.30;0.20;;;11.10;99.90;;;;;;5108555;28;20167;-78
2024/02/08 00:38:20;;;;;;;0.30;0.20;;;11.10;99.90;;;;;;5107542;28;20363;-77
2024/02/08 00:40:46;;;;;;;0.30;0.20;;;11.10;99.90;;;;;;5108362;28;20178;-78
2024/02/08 00:43:12;;;;;;;0.30;0.20;;;11.10;99.90;;;;;;5108573;28;20595;-77
2024/02/08 00:45:39;;;;;;;0.30;0.20;;;11.10;99.90;;;;;;5108944;28;20172;-77
2024/02/08 00:48:05;;;;;;;0.30;0.20;;;11.00;99.90;;;;;;5107600;28;20580;-77
2024/02/08 00:50:31;;;;;;;0.30;0.20;;;11.00;99.90;;;;;;5108529;28;20167;-77
2024/02/08 00:52:58;;;;;;;0.30;0.20;;;10.90;99.90;;;;;;5107878;28;20640;-77
2024/02/08 00:55:26;;;;;;;0.30;0.20;;;10.80;99.90;;;;;;5106556;28;20169;-76
2024/02/08 00:57:54;;;;;;;0.30;0.20;;;10.80;99.90;;;;;;5108082;28;20203;-76
2024/02/08 01:00:20;;;;;;;0.30;0.20;;;10.80;99.90;;;;;;5106551;28;20271;-77
2024/02/08 01:02:45;;;;;;;0.30;0.20;;;10.70;99.90;;;;;;5107695;28;20291;-77
2024/02/08 01:05:11;;;;;;;0.30;0.20;;;10.70;99.90;;;;;;5106799;28;20821;-77
2024/02/08 01:07:37;;;;;;;0.40;0.40;;;10.70;99.90;;;;;;5107482;28;20616;-76
2024/02/08 01:10:07;;;;;;;0.30;0.20;;;10.70;99.90;;;;;;5107924;28;20686;-77
2024/02/08 01:12:33;;;;;;;0.30;0.20;;;10.60;99.90;;;;;;5107473;28;20786;-77
2024/02/08 01:14:59;;;;;;;0.30;0.20;;;10.60;99.90;;;;;;5107764;28;20194;-77
2024/02/08 01:17:25;;;;;;;0.30;0.20;;;10.60;99.90;;;;;;5107598;28;20164;-76
2024/02/08 01:19:51;;;;;;;0.30;0.20;;;10.60;99.90;;;;;;5107882;28;20202;-78
2024/02/08 01:22:20;;;;;;;0.30;0.20;;;10.60;99.90;;;;;;5106006;28;20175;-78
2024/02/08 01:24:49;;;;;;;0.30;0.20;;;10.50;99.90;;;;;;5106399;28;20290;-77
2024/02/08 01:27:20;;;;;;;0.30;0.20;;;10.60;99.90;;;;;;5105900;28;20204;-78
2024/02/08 01:29:46;;;;;;;0.30;0.20;;;10.60;99.90;;;;;;5107748;28;20626;-77
2024/02/08 01:32:15;;;;;;;0.30;0.20;;;10.60;99.90;;;;;;5104954;28;20186;-77
2024/02/08 01:34:44;;;;;;;0.30;0.20;;;10.60;99.90;;;;;;5107699;28;20182;-78
2024/02/08 01:37:14;;;;;;;0.30;0.20;;;10.50;99.90;;;;;;5107211;28;20172;-77
2024/02/08 01:39:41;;;;;;;0.30;0.20;;;10.50;99.90;;;;;;5107400;28;20376;-76
2024/02/08 01:42:16;;;;;;;0.30;0.20;;;10.50;99.90;;;;;;5107081;28;20254;-78
2024/02/08 01:44:55;;;;;;;0.30;0.20;;;10.50;99.90;;;;;;5107309;28;20183;-77
2024/02/08 01:47:21;;;;;;;0.47;0.47;;;10.40;99.90;;;;;;5105290;28;20268;-76
2024/02/08 01:49:47;;;;;;;0.30;0.30;;;10.30;99.90;;;;;;5106835;28;20552;-77
2024/02/08 01:52:18;;;;;;;1.45;1.38;;;10.30;99.90;;;;;;5107141;28;20171;-77
2024/02/08 01:54:47;;;;;;;0.30;0.20;;;10.30;99.90;;;;;;5106963;28;20208;-77
2024/02/08 01:57:12;;;;;;;0.30;0.20;;;10.20;99.90;;;;;;5106800;28;20250;-77
2024/02/08 01:59:40;;;;;;;0.30;0.20;;;10.20;99.90;;;;;;5107255;27;20350;-76
2024/02/08 02:02:09;;;;;;;0.65;0.65;;;10.20;99.90;;;;;;5106402;28;20179;-78
2024/02/08 02:04:35;;;;;;;0.30;0.20;;;10.10;99.90;;;;;;5106991;28;20211;-77
2024/02/08 02:07:03;;;;;;;0.30;0.20;;;10.10;99.90;;;;;;5105025;28;20540;-78
2024/02/08 02:09:30;;;;;;;0.30;0.20;;;10.00;99.90;;;;;;5107055;28;20671;-77
2024/02/08 02:12:12;;;;;;;0.30;0.20;;;10.00;99.90;;;;;;5106634;28;20171;-78
2024/02/08 02:14:38;;;;;;;0.30;0.20;;;10.00;99.90;;;;;;5105560;28;20260;-77
2024/02/08 02:17:26;;;;;;;5.55;1.92;;;9.90;99.90;;;;;;5105344;28;20203;-78
2024/02/08 02:19:52;;;;;;;0.30;0.22;;;9.90;99.90;;;;;;5106658;28;20259;-77
2024/02/08 02:22:20;;;;;;;0.30;0.20;;;9.90;99.90;;;;;;5106258;28;20246;-78
2024/02/08 02:24:49;;;;;;;0.30;0.20;;;9.90;99.90;;;;;;5105220;28;20182;-77
2024/02/08 02:27:16;;;;;;;0.30;0.20;;;9.90;99.90;;;;;;5104917;28;20219;-77
2024/02/08 02:29:44;;;;;;;0.30;0.20;;;9.80;99.90;;;;;;5106503;28;20172;-78
2024/02/08 02:32:20;;;;;;;0.50;0.50;;;9.80;99.90;;;;;;5105201;28;20176;-78
2024/02/08 02:34:50;;;;;;;0.30;0.30;;;9.80;99.90;;;;;;5105413;28;20266;-78
2024/02/08 02:37:16;;;;;;;0.40;0.40;;;9.70;99.90;;;;;;5106024;28;20254;-78
2024/02/08 02:39:42;;;;;;;20.30;18.50;;;9.70;99.90;;;;;;5104648;28;20190;-77
2024/02/08 02:42:08;;;;;;;0.30;0.20;;;9.70;99.90;;;;;;5106421;27;20168;-78
2024/02/08 02:44:34;;;;;;;0.30;0.30;;;9.70;99.90;;;;;;5104871;28;20196;-77
2024/02/08 02:47:03;;;;;;;0.30;0.20;;;9.70;99.90;;;;;;5105933;28;20546;-75
2024/02/08 02:49:29;;;;;;;0.30;0.20;;;9.60;99.90;;;;;;5106135;28;20444;-78
2024/02/08 02:51:59;;;;;;;0.30;0.20;;;9.60;99.90;;;;;;5105809;28;20176;-77
2024/02/08 02:54:30;;;;;;;0.30;0.20;;;9.60;99.90;;;;;;5106239;28;20202;-76
2024/02/08 02:56:56;;;;;;;0.30;0.20;;;9.60;99.90;;;;;;5105816;28;20191;-77
2024/02/08 02:59:26;;;;;;;0.60;0.60;;;9.60;99.90;;;;;;5106093;28;20198;-77
2024/02/08 03:01:55;;;;;;;0.40;0.40;;;9.50;99.90;;;;;;5106039;28;20529;-77
2024/02/08 03:04:22;;;;;;;2.50;2.30;;;9.50;99.90;;;;;;5106153;28;20191;-77
2024/02/08 03:06:52;;;;;;;0.30;0.20;;;9.50;99.90;;;;;;5104364;28;20628;-76
2024/02/08 03:09:23;;;;;;;0.30;0.20;;;9.50;99.90;;;;;;5105640;28;20711;-77
2024/02/08 03:11:49;;;;;;;0.30;0.20;;;9.50;99.90;;;;;;5104289;28;20234;-76
2024/02/08 03:14:15;;;;;;;0.30;0.20;;;9.50;99.90;;;;;;5104433;28;20207;-77
2024/02/08 03:16:41;;;;;;;5.03;4.83;;;9.50;99.90;;;;;;5105951;28;20172;-77
2024/02/08 03:19:07;;;;;;;0.40;0.20;;;9.50;99.90;;;;;;5106019;28;20242;-77
2024/02/08 03:21:35;;;;;;;0.30;0.20;;;9.50;99.90;;;;;;5104049;28;20180;-77
2024/02/08 03:24:07;;;;;;;0.50;0.50;;;9.50;99.90;;;;;;5104471;28;20340;-77
2024/02/08 03:26:40;;;;;;;0.30;0.20;;;9.50;99.90;;;;;;5105614;28;20266;-77
2024/02/08 03:29:11;;;;;;;0.30;0.30;;;9.50;99.90;;;;;;5106196;28;20214;-76
2024/02/08 03:31:45;;;;;;;1.48;1.40;;;9.50;99.90;;;;;;5105433;28;20210;-77
2024/02/08 03:34:29;;;;;;;1.40;1.30;;;9.50;99.90;;;;;;5103626;28;20436;-77
2024/02/08 03:36:58;;;;;;;0.30;0.20;;;9.50;99.90;;;;;;5104092;28;20432;-76
2024/02/08 03:39:27;;;;;;;0.30;0.20;;;9.50;99.90;;;;;;5105951;28;20200;-76
2024/02/08 03:42:02;;;;;;;0.30;0.20;;;9.50;99.90;;;;;;5103959;28;20717;-76
2024/02/08 03:44:31;;;;;;;0.30;0.20;;;9.40;99.90;;;;;;5105336;28;20677;-77
2024/02/08 03:47:07;;;;;;;0.30;0.20;;;9.40;99.90;;;;;;5104468;28;20176;-77
2024/02/08 03:49:51;;;;;;;0.30;0.20;;;9.40;99.90;;;;;;5103913;28;20207;-76
2024/02/08 03:52:18;;;;;;;0.30;0.20;;;9.30;99.90;;;;;;5106483;28;20519;-77
2024/02/08 03:54:45;;;;;;;0.40;0.40;;;9.30;99.90;;;;;;5107889;28;20702;-78
2024/02/08 03:57:13;;;;;;;0.85;0.85;;;9.20;99.90;;;;;;5109316;28;20176;-76
2024/02/08 03:59:42;;;;;;;0.30;0.20;;;9.30;99.90;;;;;;5107961;28;20211;-77
2024/02/08 04:02:09;;;;;;;0.30;0.20;;;9.30;99.90;;;;;;5108137;28;20192;-76
2024/02/08 04:54:03;;;;;;;0.30;0.20;;;9.50;99.90;;;;;;5107554;28;20555;-76
2024/02/08 04:56:33;;;;;;;9.50;8.60;;;9.50;99.90;;;;;;5106146;28;20180;-77
2024/02/08 04:58:59;;;;;;;0.30;0.20;;;9.60;99.90;;;;;;5108194;28;20202;-76
2024/02/08 05:01:26;;;;;;;0.30;0.20;;;9.60;99.90;;;;;;5107945;28;20183;-80
2024/02/08 05:03:52;;;;;;;0.30;0.20;;;9.60;99.90;;;;;;5106912;28;20780;-76
2024/02/08 05:06:21;;;;;;;0.30;0.20;;;9.60;99.90;;;;;;5106522;28;20196;-76
2024/02/08 05:08:57;;;;;;;0.38;0.35;;;9.50;99.90;;;;;;5107619;28;20219;-76
2024/02/08 05:11:24;;;;;;;0.30;0.20;;;9.50;99.90;;;;;;5107932;28;20589;-76
2024/02/08 05:13:50;;;;;;;0.30;0.20;;;9.50;99.90;;;;;;5107989;28;20449;-76
2024/02/08 05:16:17;;;;;;;0.30;0.30;;;9.50;99.90;;;;;;5107275;28;20167;-77
2024/02/08 05:18:44;;;;;;;0.30;0.20;;;9.50;99.90;;;;;;5105206;28;20254;-76
2024/02/08 05:21:17;;;;;;;0.30;0.20;;;9.40;99.90;;;;;;5106840;28;20202;-76
2024/02/08 05:23:44;;;;;;;0.30;0.30;;;9.40;99.90;;;;;;5107113;28;20430;-77
2024/02/08 05:26:18;;;;;;;0.30;0.20;;;9.40;99.90;;;;;;5105865;28;20182;-77
2024/02/08 05:28:48;;;;;;;0.30;0.20;;;9.40;99.90;;;;;;5107080;28;20631;-76
2024/02/08 05:31:16;;;;;;;0.30;0.20;;;9.30;99.90;;;;;;5107711;28;20172;-77
2024/02/08 05:33:42;;;;;;;3.20;3.03;;;9.30;99.90;;;;;;5104331;28;20200;-76
2024/02/08 05:36:11;;;;;;;0.30;0.20;;;9.40;99.90;;;;;;5105523;28;20508;-78
2024/02/08 05:38:40;;;;;;;0.40;0.30;;;9.40;99.90;;;;;;5106599;27;20431;-78
2024/02/08 05:41:10;;;;;;;0.40;0.20;;;9.40;99.90;;;;;;5106786;28;20263;-77
2024/02/08 05:43:45;;;;;;;0.30;0.20;;;9.40;99.90;;;;;;5107151;28;20609;-78
2024/02/08 05:46:21;;;;;;;0.30;0.20;;;9.40;99.90;;;;;;5106908;28;20621;-77
2024/02/08 05:48:51;;;;;;;0.30;0.20;;;9.50;99.90;;;;;;5106316;28;20619;-77
2024/02/08 05:51:20;;;;;;;0.30;0.20;;;9.50;99.90;;;;;;5104956;28;20641;-76
2024/02/08 05:53:47;;;;;;;0.30;0.30;;;9.50;99.90;;;;;;5106007;28;20196;-76
2024/02/08 05:56:15;;;;;;;0.30;0.20;;;9.50;99.90;;;;;;5105605;28;20179;-76
2024/02/08 05:58:44;;;;;;;0.38;0.28;;;9.50;99.90;;;;;;5106381;28;20196;-76
2024/02/08 06:01:21;;;;;;;0.40;0.20;;;9.60;99.90;;;;;;5106178;28;20164;-77
2024/02/08 06:03:47;;;;;;;200.65;19.58;;;9.50;99.90;;;;;;5105315;28;20747;-76
2024/02/08 06:06:26;;;;;;;17.27;15.50;;;9.50;99.90;;;;;;5106038;28;20505;-77
2024/02/08 06:08:57;;;;;;;0.30;0.30;;;9.60;99.90;;;;;;5102883;28;20656;-76
2024/02/08 06:11:23;;;;;;;0.30;0.20;;;9.60;99.90;;;;;;5103361;28;20219;-76
2024/02/08 06:13:59;;;;;;;0.30;0.20;;;9.60;99.90;;;;;;5105815;28;20775;-77
2024/02/08 06:16:33;;;;;;;0.30;0.20;;;9.60;99.90;;;;;;5104394;28;20171;-77
2024/02/08 06:19:03;;;;;;;2.40;2.30;;;9.50;99.90;;;;;;5103694;28;20571;-76
2024/02/08 06:21:41;;;;;;;0.30;0.20;;;9.40;99.90;;;;;;5100935;28;20452;-76
2024/02/08 06:27:13;;;;;;;0.30;0.30;;;9.30;99.90;;;;;;5099289;28;20234;-77
2024/02/08 06:29:42;;;;;;;0.30;0.20;;;9.20;99.90;;;;;;5095399;28;20207;-76
2024/02/08 06:32:23;;;;;;;3.58;3.40;;;9.20;99.90;;;;;;5096458;28;20179;-78
2024/02/08 06:35:05;;;;;;;0.30;0.20;;;9.20;99.90;;;;;;5099434;28;20195;-76
2024/02/08 06:37:56;;;;;;;0.30;0.20;;;9.20;99.90;;;;;;5094995;28;20649;-78
2024/02/08 06:40:24;;;;;;;2.90;2.78;;;9.20;99.90;;;;;;5091756;28;20183;-76
2024/02/08 07:37:36;;;;;;;0.30;0.20;;;9.50;99.90;;;;;;5097440;28;20171;-76
2024/02/08 07:40:19;;;;;;;2.30;2.20;;;9.60;99.90;;;;;;5100900;28;20254;-76
2024/02/08 07:42:45;;;;;;;0.30;0.20;;;9.70;99.90;;;;;;5094197;28;20227;-76
2024/02/08 07:45:15;;;;;;;0.30;0.20;;;9.80;99.90;;;;;;5096592;28;20183;-78
2024/02/08 07:47:57;;;;;;;0.30;0.20;;;9.80;99.90;;;;;;5101921;28;20492;-76
2024/02/08 07:50:24;;;;;;;0.30;0.30;;;9.90;99.90;;;;;;5104672;28;20175;-78
2024/02/08 07:52:58;;;;;;;0.30;0.20;;;10.00;99.90;;;;;;5102149;28;20554;-78
2024/02/08 07:55:53;;;;;;;0.30;0.20;;;10.10;99.90;;;;;;5095397;28;20404;-77
2024/02/08 07:58:17;;;;;;;0.30;0.20;;;10.20;99.90;;;;;;5099517;28;20207;-76
2024/02/08 08:00:44;;;;;;;0.30;0.30;;;10.50;99.90;;;;;;5089483;28;20210;-77
2024/02/08 08:03:15;;;;;;;3.03;2.20;;;10.60;99.90;;;;;;5089989;28;20399;-78
2024/02/08 08:05:43;;;;;;;6.65;4.70;;;10.70;99.90;;;;;;5096821;28;20829;-77
2024/02/08 08:08:25;;;;;;;0.30;0.20;;;10.70;99.90;;;;;;5097294;28;20496;-79
2024/02/08 08:10:57;;;;;;;0.30;0.20;;;10.70;99.90;;;;;;5093940;28;20767;-78
2024/02/08 08:13:50;;;;;;;0.30;0.20;;;10.70;99.90;;;;;;5095106;28;20279;-78
2024/02/08 08:18:57;;;;;;;1.52;1.52;;;10.80;99.90;;;;;;5097484;28;20219;-78
2024/02/08 08:21:26;;;;;;;0.30;0.20;;;10.80;99.90;;;;;;5100164;28;20420;-77
2024/02/08 08:24:00;;;;;;;0.30;0.28;;;10.90;99.90;;;;;;5093991;28;20298;-77
2024/02/08 08:26:40;;;;;;;0.30;0.20;;;10.90;99.90;;;;;;5097073;28;20740;-77
2024/02/08 08:29:16;;;;;;;0.70;0.70;;;11.00;99.90;;;;;;5096603;28;20223;-78
2024/02/08 08:31:51;;;;;;;0.30;0.20;;;11.10;99.90;;;;;;5102786;28;20175;-77
2024/02/08 08:37:02;;;;;;;0.30;0.20;;;11.10;99.90;;;;;;5100934;28;20176;-77
2024/02/08 08:42:23;;;;;;;1.17;1.17;;;11.80;99.90;;;;;;5104359;28;20187;-78
2024/02/08 08:44:51;;;;;;;1.27;1.27;;;12.90;99.90;;;;;;5096528;28;20443;-77
2024/02/08 08:47:18;;;;;;;0.40;0.20;;;13.70;99.90;;;;;;5098769;28;20911;-78
2024/02/08 08:49:50;;;;;;;0.80;0.77;;;14.00;99.90;;;;;;5097107;28;20817;-77
2024/02/08 08:52:26;;;;;;;0.40;0.20;;;14.10;99.90;;;;;;5096961;28;20453;-77
2024/02/08 08:55:11;;;;;;;1.33;1.33;;;14.40;99.90;;;;;;5098011;28;21084;-76
2024/02/08 08:57:40;;;;;;;0.87;0.87;;;14.70;99.90;;;;;;5102666;28;20455;-77
2024/02/08 09:00:09;;;;;;;1.77;1.70;;;15.20;99.90;;;;;;5098803;28;20451;-77
2024/02/08 09:02:42;;;;;;;0.40;0.20;;;15.60;99.90;;;;;;5098688;28;20847;-78
2024/02/08 09:05:17;;;;;;;0.43;0.43;;;15.70;99.90;;;;;;5102745;28;20996;-78
2024/02/08 09:07:45;;;;;;;1.40;1.30;;;15.70;99.90;;;;;;5101530;28;20900;-78
2024/02/08 09:10:13;;;;;;;0.47;0.47;;;15.60;99.90;;;;;;5094416;28;20714;-77
2024/02/08 09:12:46;;;;;;;0.40;0.37;;;15.40;99.90;;;;;;5100219;28;20793;-78
2024/02/08 09:15:26;;;;;;;0.70;0.70;;;15.40;99.90;;;;;;5118357;27;20416;-77
2024/02/08 09:17:52;;;;;;;0.30;0.20;;;15.40;99.90;;;;;;5100865;28;21136;-78
2024/02/08 09:20:22;;;;;;;1.57;1.50;;;15.50;99.90;;;;;;5098032;28;20595;-77
2024/02/08 09:22:49;;;;;;;0.50;0.50;;;15.50;99.90;;;;;;5095771;28;20519;-78
2024/02/08 09:25:19;;;;;;;0.30;0.30;;;15.60;99.90;;;;;;5094035;28;20423;-78
2024/02/08 09:27:53;;;;;;;0.40;0.40;;;15.80;99.90;;;;;;5099907;27;20471;-78
2024/02/08 09:30:37;;;;;;;0.60;0.60;;;16.10;99.90;;;;;;5107618;27;20470;-77
2024/02/08 09:33:09;;;;;;;0.30;0.20;;;16.50;99.90;;;;;;5097143;28;20682;-78
2024/02/08 09:35:40;;;;;;;2.97;1.00;;;17.00;99.90;;;;;;5114064;27;20451;-77
2024/02/08 09:38:06;;;;;;;0.40;0.20;;;17.40;99.90;;;;;;5112853;27;20484;-78
2024/02/08 09:42:58;;;;;;;0.40;0.30;;;18.30;99.90;;;;;;5082552;28;20215;-79
2024/02/08 09:48:06;;;;;;;0.40;0.30;;;19.30;99.90;;;;;;5100790;28;20494;-78
2024/02/08 09:50:36;;;;;;;0.67;0.67;;;20.00;99.90;;;;;;5091418;28;21028;-78
2024/02/08 09:53:19;;;;;;;0.50;0.40;;;20.20;99.90;;;;;;5079978;28;20988;-78
2024/02/08 09:56:25;;;;;;;0.33;0.20;;;20.20;99.90;;;;;;5094424;28;20814;-78
2024/02/08 09:59:07;;;;;;;0.30;0.20;;;19.60;99.90;;;;;;5094462;28;20481;-79
2024/02/08 10:01:43;;;;;;;8.73;3.00;;;19.20;99.90;;;;;;5092291;28;20435;-79
2024/02/08 10:04:25;;;;;;;0.40;0.30;;;19.10;99.90;;;;;;5102009;27;20984;-78
2024/02/08 10:07:05;;;;;;;0.30;0.30;;;19.50;99.90;;;;;;5097205;28;20420;-79
2024/02/08 10:09:34;;;;;;;0.30;0.20;;;19.70;99.90;;;;;;5089141;28;20467;-79
2024/02/08 10:12:07;;;;;;;0.40;0.20;;;19.80;99.90;;;;;;5093892;28;20760;-78
2024/02/08 10:14:41;;;;;;;1.77;1.67;;;19.90;99.90;;;;;;5097799;28;20518;-78
2024/02/08 10:17:15;;;;;;;0.30;0.27;;;20.00;99.70;;;;;;5089521;28;21002;-79
2024/02/08 10:20:31;;;;;;;0.60;0.60;;;19.90;99.10;;;;;;5100697;27;20460;-78
2024/02/08 10:22:53;;;;;;;2.13;1.47;;;19.90;99.60;;;;;;5088240;28;20491;-78
2024/02/08 10:28:08;;;;;;;0.30;0.20;;;19.80;99.50;;;;;;5088494;28;20487;-78
2024/02/08 10:30:36;;;;;;;0.30;0.30;;;19.70;99.50;;;;;;5096155;28;20432;-77
2024/02/08 10:33:05;;;;;;;0.30;0.23;;;19.60;99.00;;;;;;5094807;28;21007;-78
2024/02/08 10:35:39;;;;;;;1.47;0.87;;;19.50;99.10;;;;;;5096305;28;20811;-79
2024/02/08 10:38:18;;;;;;;0.30;0.20;;;19.50;99.20;;;;;;5095508;28;20467;-78
2024/02/08 10:40:55;;;;;;;0.30;0.20;;;19.40;99.10;;;;;;5083989;28;20450;-79
2024/02/08 10:43:24;;;;;;;1.03;0.73;;;19.30;99.20;;;;;;5089109;28;20460;-77
2024/02/08 10:46:02;;;;;;;0.30;0.20;;;19.10;98.90;;;;;;5085504;28;20424;-77
2024/02/08 10:48:28;;;;;;;0.50;0.50;;;19.00;99.00;;;;;;5099189;28;20872;-78
2024/02/08 10:51:02;;;;;;;1.60;1.50;;;18.90;99.20;;;;;;5096886;28;20435;-78
2024/02/08 10:53:45;;;;;;;0.33;0.20;;;18.90;99.40;;;;;;5101428;27;20474;-78
2024/02/08 10:56:16;;;;;;;0.30;0.20;;;19.00;99.40;;;;;;5082763;28;20823;-79
2024/02/08 11:01:37;;;;;;;0.30;0.20;;;19.10;99.20;;;;;;5091012;28;20420;-79
2024/02/08 11:04:28;;;;;;;0.63;0.63;;;19.20;99.30;;;;;;5087883;28;20451;-78
2024/02/08 11:07:33;;;;;;;0.30;0.20;;;19.30;99.40;;;;;;5082168;28;20842;-79
2024/02/08 11:09:59;;;;;;;0.30;0.20;;;19.40;98.60;;;;;;5090876;27;20830;-78
2024/02/08 11:12:31;;;;;;;0.30;0.20;;;19.50;98.60;;;;;;5094620;27;20423;-78
2024/02/08 11:15:19;;;;;;;0.30;0.20;;;19.40;98.40;;;;;;5096369;28;20180;-79
2024/02/08 11:17:51;;;;;;;0.30;0.20;;;19.40;98.50;;;;;;5091078;28;20769;-78
2024/02/08 11:20:43;;;;;;;0.77;0.77;;;19.30;98.70;;;;;;5103451;28;20465;-78
2024/02/08 11:23:10;;;;;;;0.30;0.20;;;19.10;98.60;;;;;;5097741;28;20460;-78
2024/02/08 11:25:38;;;;;;;0.30;0.20;;;19.00;98.50;;;;;;5086803;28;20928;-78
2024/02/08 11:28:17;;;;;;;3.93;2.57;;;19.00;98.50;;;;;;5100324;28;20495;-78
2024/02/08 11:30:46;;;;;;;0.30;0.20;;;19.00;98.80;;;;;;5100656;28;20631;-79
2024/02/08 11:33:13;;;;;;;0.30;0.20;;;19.10;98.90;;;;;;5098294;28;20945;-78
2024/02/08 11:35:54;;;;;;;0.47;0.30;;;19.10;97.80;;;;;;5100974;28;20417;-78
2024/02/08 11:38:34;;;;;;;0.30;0.20;;;19.00;97.80;;;;;;5098550;28;20565;-79
2024/02/08 11:41:10;;;;;;;6.07;3.30;;;18.90;97.60;;;;;;5085997;28;20404;-78
2024/02/08 11:43:46;;;;;;;0.30;0.20;;;18.70;97.70;;;;;;5098788;28;20444;-78
2024/02/08 11:46:20;;;;;;;0.30;0.27;;;18.50;98.00;;;;;;5100771;28;20435;-78
2024/02/08 11:48:46;;;;;;;0.30;0.20;;;18.30;98.10;;;;;;5099893;28;20544;-78
2024/02/08 11:51:17;;;;;;;0.30;0.20;;;18.20;98.20;;;;;;5097176;28;21033;-79
2024/02/08 11:53:45;;;;;;;0.30;0.20;;;18.20;98.50;;;;;;5092717;28;20478;-78
2024/02/08 11:56:15;;;;;;;4.27;3.03;;;18.00;98.70;;;;;;5093588;28;20423;-78
2024/02/08 11:58:46;;;;;;;0.83;0.83;;;17.90;98.90;;;;;;5095207;28;20872;-78
2024/02/08 12:01:14;;;;;;;0.30;0.20;;;17.90;99.10;;;;;;5093365;28;20772;-79
2024/02/08 12:03:43;;;;;;;3.60;3.40;;;18.00;99.10;;;;;;5093176;28;20447;-78
2024/02/08 12:06:21;;;;;;;0.30;0.20;;;18.10;99.40;;;;;;5089713;28;20422;-79
2024/02/08 12:08:59;;;;;;;0.30;0.20;;;18.20;99.30;;;;;;5089853;28;20482;-77
2024/02/08 12:11:30;;;;;;;0.30;0.20;;;18.30;99.40;;;;;;5094965;28;21033;-78
2024/02/08 12:14:07;;;;;;;0.60;0.60;;;18.30;98.90;;;;;;5119829;27;21278;-77
2024/02/08 12:16:50;;;;;;;0.30;0.20;;;18.30;98.70;;;;;;5098322;28;20522;-78
2024/02/08 12:19:17;;;;;;;0.30;0.20;;;18.30;98.70;;;;;;5125108;27;20463;-78
2024/02/08 12:21:43;;;;;;;0.40;0.30;;;18.20;98.40;;;;;;5101118;28;20947;-78
2024/02/08 12:24:15;;;;;;;0.30;0.20;;;18.20;98.50;;;;;;5120614;27;20458;-78
2024/02/08 12:26:42;;;;;;;0.60;0.60;;;18.20;98.60;;;;;;5100208;28;20535;-77
2024/02/08 12:29:16;;;;;;;0.30;0.20;;;18.10;98.70;;;;;;5090388;28;20487;-77
2024/02/08 12:31:45;;;;;;;0.30;0.20;;;18.20;98.60;;;;;;5101281;28;20819;-78
2024/02/08 12:34:16;;;;;;;0.30;0.20;;;18.10;98.50;;;;;;5091181;28;20812;-78
2024/02/08 12:36:44;;;;;;;0.30;0.30;;;18.10;98.70;;;;;;5102792;28;20823;-79
2024/02/08 12:39:19;;;;;;;0.30;0.20;;;18.10;98.70;;;;;;5099620;28;20491;-77
2024/02/08 12:41:46;;;;;;;0.30;0.20;;;18.00;98.50;;;;;;5094798;28;20422;-78
2024/02/08 12:44:15;;;;;;;0.30;0.20;;;17.90;98.60;;;;;;5098181;28;20737;-77
2024/02/08 12:46:47;;;;;;;0.50;0.50;;;17.90;98.50;;;;;;5089707;28;20705;-77
2024/02/08 12:49:15;;;;;;;0.60;0.57;;;18.00;98.70;;;;;;5096766;28;20482;-77
2024/02/08 12:51:41;;;;;;;0.30;0.20;;;18.10;98.80;;;;;;5093539;28;20451;-78
2024/02/08 12:54:07;;;;;;;0.30;0.30;;;18.20;98.90;;;;;;5091777;28;21164;-78
2024/02/08 12:56:39;;;;;;;0.30;0.20;;;18.20;98.80;;;;;;5093040;28;20221;-78
2024/02/08 12:59:05;;;;;;;0.30;0.20;;;18.20;98.90;;;;;;5115339;27;20784;-78
2024/02/08 13:01:44;;;;;;;0.30;0.30;;;18.20;99.00;;;;;;5095413;28;20705;-77
2024/02/08 13:04:16;;;;;;;0.30;0.30;;;18.30;99.20;;;;;;5091818;28;20455;-77
2024/02/08 13:06:41;;;;;;;5.03;4.63;;;18.40;99.10;;;;;;5089698;28;20435;-77
2024/02/08 13:09:25;;;;;;;0.30;0.20;;;18.50;99.00;;;;;;5093878;28;20678;-77
2024/02/08 13:12:14;;;;;;;0.30;0.20;;;18.50;99.30;;;;;;5093227;28;20223;-77
2024/02/08 13:14:56;;;;;;;0.30;0.20;;;18.50;98.90;;;;;;5094656;28;20462;-79
2024/02/08 13:17:26;;;;;;;0.57;0.57;;;18.50;98.90;;;;;;5089798;28;20459;-77
2024/02/08 13:19:55;;;;;;;0.30;0.20;;;18.60;99.10;;;;;;5094890;28;20664;-77
2024/02/08 13:22:25;;;;;;;0.30;0.20;;;18.60;99.20;;;;;;5095344;28;20956;-78
2024/02/08 13:24:54;;;;;;;1.70;1.63;;;18.70;98.90;;;;;;5079965;28;20500;-78
2024/02/08 13:27:24;;;;;;;0.30;0.20;;;18.70;99.00;;;;;;5096133;28;20419;-78
2024/02/08 13:29:53;;;;;;;0.30;0.20;;;18.70;98.90;;;;;;5099075;28;20470;-77
2024/02/08 13:32:24;;;;;;;0.30;0.20;;;18.80;99.00;;;;;;5098828;28;20428;-78
2024/02/08 13:34:54;;;;;;;0.30;0.20;;;18.80;98.50;;;;;;5100737;28;20842;-78
2024/02/08 13:37:22;;;;;;;0.40;0.40;;;18.80;98.50;;;;;;5093026;28;20420;-77
2024/02/08 13:39:59;;;;;;;0.60;0.60;;;18.80;98.30;;;;;;5089307;27;20439;-77
2024/02/08 13:42:29;;;;;;;0.30;0.20;;;18.80;98.30;;;;;;5098442;28;20423;-78
2024/02/08 13:44:57;;;;;;;0.30;0.20;;;18.70;98.50;;;;;;5103716;27;20564;-78
2024/02/08 13:47:25;;;;;;;0.37;0.20;;;18.70;98.50;;;;;;5096358;28;20455;-77
2024/02/08 13:49:53;;;;;;;0.40;0.40;;;18.80;98.30;;;;;;5099506;28;20531;-77
2024/02/08 13:52:19;;;;;;;0.47;0.47;;;18.70;98.50;;;;;;5102635;27;20792;-77
2024/02/08 13:54:48;;;;;;;1.03;0.93;;;18.80;98.40;;;;;;5095032;28;20454;-77
2024/02/08 13:57:17;;;;;;;0.40;0.20;;;18.90;98.10;;;;;;5096259;28;20769;-77
2024/02/08 13:59:46;;;;;;;0.30;0.20;;;18.90;97.80;;;;;;5099363;28;20420;-78
2024/02/08 14:02:20;;;;;;;0.37;0.30;;;18.90;97.60;;;;;;5097120;27;20432;-77
2024/02/08 14:04:52;;;;;;;0.30;0.20;;;18.90;97.60;;;;;;5094207;28;20504;-78
2024/02/08 14:07:19;;;;;;;0.30;0.20;;;19.00;97.60;;;;;;5094713;28;20439;-77
2024/02/08 14:09:52;;;;;;;0.73;0.73;;;18.90;97.50;;;;;;5095850;28;20431;-77
2024/02/08 14:12:24;;;;;;;0.30;0.30;;;18.80;97.40;;;;;;5091418;28;20610;-78
2024/02/08 14:14:54;;;;;;;0.30;0.20;;;18.70;97.70;;;;;;5095167;28;20602;-78
2024/02/08 14:17:27;;;;;;;0.30;0.20;;;18.70;97.70;;;;;;5095009;28;20424;-78
2024/02/08 14:19:56;;;;;;;0.30;0.30;;;18.70;97.40;;;;;;5092350;28;20434;-78
2024/02/08 14:22:24;;;;;;;0.30;0.20;;;18.60;97.50;;;;;;5096910;28;20419;-79
2024/02/08 14:24:51;;;;;;;0.30;0.30;;;18.60;97.50;;;;;;5096542;28;20863;-79
2024/02/08 14:27:23;;;;;;;0.30;0.20;;;18.70;97.60;;;;;;5093549;28;20468;-78
2024/02/08 14:29:50;;;;;;;0.30;0.20;;;18.80;97.70;;;;;;5090268;28;20430;-77
2024/02/08 14:32:21;;;;;;;0.30;0.27;;;18.80;97.50;;;;;;5101331;28;20431;-78
2024/02/08 14:34:47;;;;;;;0.30;0.20;;;18.90;97.40;;;;;;5089895;28;20465;-78
2024/02/08 14:37:13;;;;;;;0.40;0.40;;;18.80;96.90;;;;;;5100966;28;20442;-77
2024/02/08 14:39:38;;;;;;;0.30;0.20;;;18.70;96.80;;;;;;5103091;28;20463;-78
2024/02/08 14:42:17;;;;;;;0.30;0.20;;;18.60;96.90;;;;;;5101679;28;20572;-78
2024/02/08 14:44:51;;;;;;;0.30;0.30;;;18.50;97.00;;;;;;5096656;28;20532;-78
2024/02/08 14:47:31;;;;;;;3.90;1.90;;;18.50;97.30;;;;;;5097673;28;20433;-78
2024/02/08 14:49:59;;;;;;;0.30;0.20;;;18.60;97.30;;;;;;5101020;27;20785;-78
2024/02/08 14:52:34;;;;;;;0.30;0.20;;;18.70;97.40;;;;;;5098040;28;21038;-77
2024/02/08 14:55:19;;;;;;;0.40;0.30;;;18.70;97.30;;;;;;5102514;28;20419;-78
2024/02/08 14:57:46;;;;;;;0.30;0.20;;;18.80;97.20;;;;;;5095858;28;20468;-78
2024/02/08 15:03:08;;;;;;;0.50;0.50;;;19.00;96.90;;;;;;5094147;28;20726;-78
2024/02/08 15:05:59;;;;;;;0.30;0.20;;;19.00;96.90;;;;;;5098104;28;20436;-78
2024/02/08 15:11:03;;;;;;;0.30;0.20;;;19.00;96.80;;;;;;5098133;28;20569;-79
2024/02/08 15:13:46;;;;;;;1.03;1.03;;;19.00;96.90;;;;;;5103234;27;20572;-78
2024/02/08 15:16:12;;;;;;;1.80;1.70;;;19.10;96.90;;;;;;5100967;28;20448;-77
2024/02/08 15:18:47;;;;;;;0.30;0.20;;;19.10;96.80;;;;;;5094739;28;20468;-77
2024/02/08 15:21:23;;;;;;;0.30;0.20;;;19.20;96.70;;;;;;5097500;28;20943;-78
2024/02/08 15:26:44;;;;;;;2.20;2.10;;;19.30;96.60;;;;;;5092976;28;20427;-78